createdAt,value
2018-01-25T00:03:48.328Z,95891
2018-01-25T00:09:16.518Z,95882
2018-01-25T00:14:45.484Z,95882
2018-01-25T00:20:13.709Z,95882
2018-01-25T00:25:41.907Z,95893
2018-01-25T00:31:10.077Z,95889
2018-01-25T00:42:39.443Z,95883
2018-01-25T00:48:07.621Z,95882
2018-01-25T00:53:35.808Z,95886
2018-01-25T00:59:27.303Z,95893
2018-01-25T01:04:55.495Z,95885
2018-01-25T01:10:25.657Z,95883
2018-01-25T01:15:53.876Z,95876
2018-01-25T01:21:22.086Z,95892
2018-01-25T01:26:50.264Z,95894
2018-01-25T01:32:18.462Z,95889
2018-01-25T01:37:46.663Z,95893
2018-01-25T01:43:14.837Z,95890
2018-01-25T01:48:43.257Z,95890
2018-01-25T01:54:11.463Z,95895
2018-01-25T01:59:39.656Z,95893
2018-01-25T02:05:15.909Z,95882
2018-01-25T02:10:44.111Z,95879
2018-01-25T02:16:12.293Z,95874
2018-01-25T02:21:40.504Z,95868
2018-01-25T02:27:08.677Z,95876
2018-01-25T02:32:36.870Z,95869
2018-01-25T02:38:06.023Z,95872
2018-01-25T02:43:34.200Z,95867
2018-01-25T02:49:03.212Z,95867
2018-01-25T02:54:31.432Z,95877
2018-01-25T02:59:59.639Z,95892
2018-01-25T03:05:28.102Z,95885
2018-01-25T03:10:56.364Z,95877
2018-01-25T03:16:25.531Z,95893
2018-01-25T03:21:53.738Z,95881
2018-01-25T03:27:21.922Z,95892
2018-01-25T03:32:50.861Z,95891
2018-01-25T03:38:19.044Z,95888
2018-01-25T03:43:47.256Z,95885
2018-01-25T03:49:15.469Z,95887
2018-01-25T03:54:44.374Z,95883
2018-01-25T04:00:12.841Z,95893
2018-01-25T04:05:41.027Z,95889
2018-01-25T04:11:09.217Z,95879
2018-01-25T04:16:38.179Z,95877
2018-01-25T04:22:06.340Z,95866
2018-01-25T04:27:34.780Z,95860
2018-01-25T04:33:03.250Z,95862
2018-01-25T04:38:31.452Z,95857
2018-01-25T04:44:03.618Z,95859
2018-01-25T04:49:32.823Z,95861
2018-01-25T04:55:04.550Z,95865
2018-01-25T05:00:33.697Z,95859
2018-01-25T05:06:05.789Z,95867
2018-01-25T05:11:34.046Z,95868
2018-01-25T05:17:06.627Z,95867
2018-01-25T05:22:34.843Z,95867
2018-01-25T05:28:09.257Z,95874
2018-01-25T05:33:37.477Z,95866
2018-01-25T05:39:07.657Z,95876
2018-01-25T05:44:35.877Z,95873
2018-01-25T05:50:05.029Z,95886
2018-01-25T05:55:33.220Z,95880
2018-01-25T06:01:01.456Z,95879
2018-01-25T06:06:29.649Z,95886
2018-01-25T06:11:58.632Z,95879
2018-01-25T06:17:26.833Z,95877
2018-01-25T06:22:55.036Z,95886
2018-01-25T06:28:24.011Z,95890
2018-01-25T06:33:52.202Z,95891
2018-01-25T06:39:20.373Z,95895
2018-01-25T06:44:48.559Z,95885
2018-01-25T06:50:16.764Z,95884
2018-01-25T06:55:48.700Z,95890
2018-01-25T07:01:16.882Z,95883
2018-01-25T07:06:45.827Z,95886
2018-01-25T07:12:14.044Z,95887
2018-01-25T07:17:42.274Z,95893
2018-01-25T07:23:10.471Z,95886
2018-01-25T07:28:38.683Z,95888
2018-01-25T07:34:06.887Z,95885
2018-01-25T07:39:35.328Z,95890
2018-01-25T07:45:03.565Z,95881
2018-01-25T07:50:33.485Z,95869
2018-01-25T07:56:01.671Z,95866
2018-01-25T08:01:29.873Z,95869
2018-01-25T08:06:59.801Z,95860
2018-01-25T08:12:28.011Z,95851
2018-01-25T08:17:56.273Z,95855
2018-01-25T08:23:27.204Z,95848
2018-01-25T08:28:55.411Z,95847
2018-01-25T08:34:23.607Z,95853
2018-01-25T08:39:52.786Z,95842
2018-01-25T08:45:20.980Z,95831
2018-01-25T08:50:50.322Z,95832
2018-01-25T08:56:18.588Z,95824
2018-01-25T09:01:46.791Z,95826
2018-01-25T09:07:16.989Z,95827
2018-01-25T09:12:45.173Z,95827
2018-01-25T09:18:13.376Z,95823
2018-01-25T09:23:41.598Z,95822
2018-01-25T09:29:09.811Z,95826
2018-01-25T09:34:38.751Z,95826
2018-01-25T09:40:19.366Z,95825
2018-01-25T09:45:48.340Z,95820
2018-01-25T09:51:16.609Z,95821
2018-01-25T09:56:45.575Z,95812
2018-01-25T10:02:13.802Z,95799
2018-01-25T10:07:42.965Z,95797
2018-01-25T10:13:11.190Z,95796
2018-01-25T10:18:39.386Z,95798
2018-01-25T10:24:07.608Z,95793
2018-01-25T10:29:55.366Z,95782
2018-01-25T10:35:24.338Z,95778
2018-01-25T10:40:52.533Z,95762
2018-01-25T10:46:20.734Z,95749
2018-01-25T10:51:49.728Z,95742
2018-01-25T10:57:17.967Z,95741
2018-01-25T11:02:46.175Z,95722
2018-01-25T11:08:14.522Z,95721
2018-01-25T11:13:43.864Z,95723
2018-01-25T11:19:13.742Z,95721
2018-01-25T11:24:42.019Z,95710
2018-01-25T11:30:10.231Z,95708
2018-01-25T11:35:38.434Z,95699
2018-01-25T11:41:06.630Z,95698
2018-01-25T11:46:34.831Z,95680
2018-01-25T11:52:03.064Z,95666
2018-01-25T11:57:32.042Z,95664
2018-01-25T12:03:00.256Z,95655
2018-01-25T12:08:28.501Z,95639
2018-01-25T12:13:56.727Z,95635
2018-01-25T12:19:24.913Z,95613
2018-01-25T12:24:53.116Z,95596
2018-01-25T12:30:21.309Z,95596
2018-01-25T12:35:49.522Z,95586
2018-01-25T12:41:18.642Z,95584
2018-01-25T12:46:46.848Z,95589
2018-01-25T12:52:15.056Z,95582
2018-01-25T12:57:44.034Z,95573
2018-01-25T13:03:12.269Z,95567
2018-01-25T13:08:40.476Z,95559
2018-01-25T13:14:08.680Z,95552
2018-01-25T13:19:36.900Z,95545
2018-01-25T13:25:05.123Z,95547
2018-01-25T13:30:33.330Z,95552
2018-01-25T13:36:01.520Z,95543
2018-01-25T13:41:29.728Z,95546
2018-01-25T13:46:57.912Z,95532
2018-01-25T13:52:31.678Z,95544
2018-01-25T13:57:59.895Z,95523
2018-01-25T14:03:28.196Z,95527
2018-01-25T14:08:56.402Z,95529
2018-01-25T14:14:25.380Z,95519
2018-01-25T14:19:53.571Z,95517
2018-01-25T14:25:23.761Z,95512
2018-01-25T14:30:51.959Z,95510
2018-01-25T14:36:20.194Z,95505
2018-01-25T14:41:48.398Z,95501
2018-01-25T14:47:16.578Z,95512
2018-01-25T14:52:44.799Z,95507
2018-01-25T14:58:24.227Z,95511
2018-01-25T15:03:53.244Z,95503
2018-01-25T15:09:23.918Z,95503
2018-01-25T15:14:52.896Z,95504
2018-01-25T15:20:21.093Z,95499
2018-01-25T15:25:55.154Z,95500
2018-01-25T15:31:23.363Z,95495
2018-01-25T15:36:52.471Z,95487
2018-01-25T15:42:20.700Z,95484
2018-01-25T15:47:48.950Z,95483
2018-01-25T15:53:17.929Z,95470
2018-01-25T15:58:46.891Z,95471
2018-01-25T16:04:15.107Z,95475
2018-01-25T16:09:43.368Z,95470
2018-01-25T16:15:13.300Z,95465
2018-01-25T16:20:41.545Z,95462
2018-01-25T16:26:10.512Z,95454
2018-01-25T16:31:38.798Z,95461
2018-01-25T16:37:07.856Z,95458
2018-01-25T16:42:36.096Z,95468
2018-01-25T16:48:04.287Z,95470
2018-01-25T16:53:33.229Z,95452
2018-01-25T16:59:01.405Z,95458
2018-01-25T17:04:29.589Z,95463
2018-01-25T17:09:57.765Z,95467
2018-01-25T17:15:25.961Z,95463
2018-01-25T17:20:54.149Z,95454
2018-01-25T17:26:22.332Z,95468
2018-01-25T17:31:50.516Z,95478
2018-01-25T17:37:18.711Z,95471
2018-01-25T17:42:46.936Z,95488
2018-01-25T17:48:15.210Z,95490
2018-01-25T17:53:43.486Z,95489
2018-01-25T17:59:12.355Z,95488
2018-01-25T18:04:40.568Z,95498
2018-01-25T18:10:09.752Z,95488
2018-01-25T18:15:39.216Z,95495
2018-01-25T18:21:09.204Z,95506
2018-01-25T18:26:37.958Z,95494
2018-01-25T18:32:06.202Z,95493
2018-01-25T18:37:34.424Z,95504
2018-01-25T18:43:13.895Z,95508
2018-01-25T18:48:42.139Z,95521
2018-01-25T18:54:11.347Z,95517
2018-01-25T18:59:39.561Z,95511
2018-01-25T19:05:07.944Z,95504
2018-01-25T19:10:36.162Z,95505
2018-01-25T19:16:12.889Z,95509
2018-01-25T19:21:41.142Z,95511
2018-01-25T19:27:09.484Z,95504
2018-01-25T19:32:37.679Z,95500
2018-01-25T19:38:12.329Z,95498
2018-01-25T19:43:40.525Z,95499
2018-01-25T19:49:08.838Z,95498
2018-01-25T19:54:37.225Z,95496
2018-01-25T20:00:05.429Z,95493
2018-01-25T20:05:34.451Z,95497
2018-01-25T20:11:02.650Z,95500
2018-01-25T20:16:30.872Z,95505
2018-01-25T20:21:59.078Z,95513
2018-01-25T20:27:27.290Z,95500
2018-01-25T20:32:56.437Z,95500
2018-01-25T20:38:24.637Z,95508
2018-01-25T20:43:54.607Z,95517
2018-01-25T20:49:22.785Z,95512
2018-01-25T20:54:50.981Z,95503
2018-01-25T21:00:19.186Z,95495
2018-01-25T21:11:50.716Z,95491
2018-01-25T21:17:18.925Z,95491
2018-01-25T21:22:47.125Z,95497
2018-01-25T21:28:15.329Z,95501
2018-01-25T21:33:57.438Z,95498
2018-01-25T21:39:25.658Z,95511
2018-01-25T21:45:03.463Z,95505
2018-01-25T21:50:40.862Z,95499
2018-01-25T21:56:10.716Z,95503
2018-01-25T22:01:43.410Z,95497
2018-01-25T22:07:11.654Z,95494
2018-01-25T22:12:40.638Z,95493
2018-01-25T22:18:14.380Z,95498
2018-01-25T22:23:42.580Z,95504
2018-01-25T22:29:14.629Z,95511
2018-01-25T22:34:43.011Z,95521
2018-01-25T22:40:14.410Z,95520
2018-01-25T22:45:48.309Z,95523
2018-01-25T22:51:16.796Z,95532
2018-01-25T22:56:44.995Z,95531
2018-01-25T23:02:28.376Z,95531
2018-01-25T23:07:58.576Z,95529
2018-01-25T23:13:40.972Z,95522
2018-01-25T23:19:09.485Z,95524
2018-01-25T23:24:37.744Z,95524
2018-01-25T23:30:06.759Z,95526
2018-01-25T23:35:34.963Z,95506
2018-01-25T23:41:03.196Z,95503
2018-01-25T23:46:35.344Z,95496
2018-01-25T23:52:04.328Z,95488
2018-01-25T23:57:32.544Z,95484
